Time;durP1;ratioP1;P1;durP2;ratioP2;P2;SDS_P1;SDS_P2;PMS_P1;PMS_P2;Temp;Humidity;BMP_temperature;BMP_pressure;BME280_temperature;BME280_humidity;BME280_pressure;Samples;Min_cycle;Max_cycle;Signal;HPM_P1;HPM_P2
2023/10/13 00:00:35;;;;;;;6.00;3.70;;;21.60;65.60;;;21.92;41.72;98735.34;5007401;28;118440;-84
2023/10/13 00:03:03;;;;;;;4.30;2.87;;;21.70;65.20;;;21.93;41.51;98727.75;5023933;27;119127;-84
2023/10/13 00:05:30;;;;;;;6.77;3.63;;;21.60;64.70;;;21.91;41.28;98722.50;5047553;27;124010;-84
2023/10/13 00:08:04;;;;;;;5.10;3.00;;;21.60;64.50;;;21.92;41.10;98720.47;4991740;28;122904;-83
2023/10/13 00:10:33;;;;;;;4.70;2.90;;;21.60;64.30;;;21.91;40.90;98724.50;5004686;28;119727;-86
2023/10/13 00:15:45;;;;;;;5.77;3.40;;;21.60;63.50;;;21.91;40.25;98714.03;5018266;27;124342;-86
2023/10/13 00:18:12;;;;;;;5.53;3.00;;;21.60;63.10;;;21.90;39.90;98706.81;5025370;27;123767;-87
2023/10/13 00:20:47;;;;;;;9.83;3.00;;;21.60;62.50;;;21.89;39.65;98704.38;5012566;28;118618;-85
2023/10/13 00:23:20;;;;;;;11.37;3.70;;;21.60;62.20;;;21.89;39.74;98716.44;5008740;28;118698;-86
2023/10/13 00:25:53;;;;;;;10.10;3.23;;;21.60;62.10;;;21.90;39.52;98708.84;5005734;28;124125;-86
2023/10/13 00:28:24;;;;;;;5.83;3.13;;;21.60;61.80;;;21.88;39.60;98712.03;5026061;27;124812;-86
2023/10/13 00:31:00;;;;;;;8.43;3.70;;;21.60;61.60;;;21.89;39.34;98707.19;5023447;27;119989;-86
2023/10/13 00:33:27;;;;;;;4.60;3.10;;;21.60;61.40;;;21.88;39.29;98709.22;5023176;27;121173;-86
2023/10/13 00:35:57;;;;;;;5.00;3.17;;;21.60;61.30;;;21.88;39.24;98703.59;5026747;28;124076;-86
2023/10/13 00:38:24;;;;;;;7.00;2.70;;;21.60;60.90;;;21.88;38.78;98709.22;5031086;27;123994;-86
2023/10/13 00:40:54;;;;;;;6.00;3.30;;;21.60;60.70;;;21.89;38.96;98699.56;5027741;27;118572;-87
2023/10/13 00:46:07;;;;;;;6.10;3.10;;;21.60;60.40;;;21.91;38.67;98707.63;5033624;27;124829;-85
2023/10/13 00:48:54;;;;;;;3.57;2.53;;;21.60;60.20;;;21.88;38.58;98702.78;5034691;27;124240;-85
2023/10/13 00:51:40;;;;;;;6.23;2.90;;;21.50;60.00;;;21.83;38.52;98706.75;5024591;27;119524;-85
2023/10/13 00:54:11;;;;;;;5.90;2.93;;;21.60;60.10;;;21.77;38.56;98700.69;5014008;27;118639;-85
2023/10/13 00:56:57;;;;;;;4.27;2.80;;;21.50;60.00;;;21.75;38.58;98711.50;5028183;27;123943;-84
2023/10/13 00:59:25;;;;;;;5.73;3.37;;;21.50;59.90;;;21.72;38.51;98697.44;5041970;27;123884;-84
2023/10/13 01:01:55;;;;;;;7.00;3.00;;;21.40;59.80;;;21.72;38.74;98703.06;5045774;27;119337;-85
2023/10/13 01:04:28;;;;;;;6.23;3.50;;;21.50;59.90;;;21.71;38.36;98707.88;5023873;27;119249;-83
2023/10/13 01:06:54;;;;;;;4.33;2.60;;;21.50;59.90;;;21.70;38.61;98708.25;5045542;27;124291;-84
2023/10/13 01:09:24;;;;;;;4.57;2.80;;;21.40;59.80;;;21.69;38.66;98707.47;5033083;27;123633;-85
2023/10/13 01:11:55;;;;;;;8.83;2.87;;;21.40;59.80;;;21.69;38.84;98701.03;5028563;27;119430;-85
2023/10/13 01:14:23;;;;;;;6.20;3.00;;;21.40;60.50;;;21.68;38.81;98705.84;5031357;27;119095;-86
2023/10/13 01:16:52;;;;;;;4.20;2.67;;;21.40;59.80;;;21.68;38.46;98705.03;5027935;27;125045;-84
2023/10/13 01:19:24;;;;;;;4.10;2.87;;;21.40;59.70;;;21.67;38.60;98692.97;5027814;28;125143;-85
2023/10/13 01:22:04;;;;;;;5.90;3.27;;;21.40;60.40;;;21.67;38.50;98692.97;5028687;27;120752;-86
2023/10/13 01:24:31;;;;;;;4.30;2.90;;;21.40;59.90;;;21.66;38.85;98696.19;5014438;27;120086;-86
2023/10/13 01:27:07;;;;;;;13.17;3.20;;;21.40;60.10;;;21.66;38.57;98690.56;5028177;27;124125;-87
2023/10/13 01:29:34;;;;;;;8.30;3.10;;;21.40;59.70;;;21.65;38.48;98688.94;5028272;27;123800;-86
2023/10/13 01:32:00;;;;;;;7.07;3.20;;;21.60;59.70;;;21.65;38.49;98688.94;5026370;27;119456;-86
2023/10/13 01:34:27;;;;;;;5.23;3.27;;;21.30;59.50;;;21.65;38.21;98688.94;5013816;28;118020;-83
2023/10/13 01:36:55;;;;;;;6.07;3.40;;;21.30;59.50;;;21.64;38.15;98676.09;5014167;28;123382;-84
2023/10/13 01:39:28;;;;;;;4.37;2.53;;;21.30;59.30;;;21.62;38.24;98679.28;5024549;27;123725;-84
2023/10/13 01:41:55;;;;;;;5.60;3.00;;;21.30;59.40;;;21.60;38.50;98674.06;5012617;28;118353;-84
2023/10/13 01:44:32;;;;;;;7.43;3.37;;;21.30;59.50;;;21.61;38.75;98677.66;5008295;28;119043;-85
2023/10/13 01:47:06;;;;;;;5.80;3.03;;;21.30;59.50;;;21.59;38.50;98674.44;5041743;27;125062;-85
2023/10/13 01:49:42;;;;;;;4.07;2.77;;;21.30;59.40;;;21.58;38.23;98679.25;5000660;27;123355;-84
2023/10/13 01:52:12;;;;;;;4.50;3.20;;;21.30;59.30;;;21.57;38.19;98680.47;5041977;27;119659;-85
2023/10/13 01:54:40;;;;;;;4.40;2.57;;;21.30;59.40;;;21.57;38.55;98682.44;5039927;27;119709;-84
2023/10/13 01:57:14;;;;;;;6.40;3.57;;;21.30;59.40;;;21.56;38.42;98678.81;5016861;28;124207;-84
2023/10/13 01:59:44;;;;;;;5.43;3.20;;;21.30;59.40;;;21.56;38.66;98670.38;5029158;27;123865;-84
2023/10/13 02:02:14;;;;;;;5.17;3.27;;;21.30;59.40;;;21.55;38.55;98671.59;5028133;27;119415;-84
2023/10/13 02:05:00;;;;;;;9.70;3.50;;;21.20;59.60;;;21.55;39.11;98680.03;5026808;27;118303;-84
2023/10/13 02:07:29;;;;;;;5.63;3.23;;;21.20;59.80;;;21.52;39.42;98668.75;5000905;28;123599;-84
2023/10/13 02:09:59;;;;;;;4.40;3.00;;;21.20;60.70;;;21.51;39.21;98655.91;5011512;27;123881;-85
2023/10/13 02:12:36;;;;;;;9.87;3.40;;;21.20;60.20;;;21.48;39.37;98651.06;5021368;28;119945;-85
2023/10/13 02:15:04;;;;;;;7.77;3.10;;;21.20;60.30;;;21.46;39.58;98659.06;5044218;27;119646;-84
2023/10/13 02:17:40;;;;;;;7.70;3.53;;;21.20;60.30;;;21.45;39.36;98654.66;5011381;28;123477;-84
2023/10/13 02:20:15;;;;;;;6.43;3.40;;;21.20;60.50;;;21.40;39.36;98650.19;5027194;28;123902;-85
2023/10/13 02:22:50;;;;;;;6.40;3.17;;;21.20;60.80;;;21.39;39.36;98651.38;5017221;28;118664;-85
2023/10/13 02:25:35;;;;;;;5.53;2.93;;;21.10;60.40;;;21.37;39.33;98650.94;5040198;27;118979;-85
2023/10/13 02:28:13;;;;;;;5.30;3.20;;;21.10;60.30;;;21.36;39.16;98640.91;5014011;28;124136;-85
2023/10/13 02:30:45;;;;;;;5.63;3.50;;;21.10;60.50;;;21.34;39.54;98634.84;5008195;27;123937;-85
2023/10/13 02:33:12;;;;;;;5.00;3.20;;;21.10;60.60;;;21.32;39.53;98634.44;5004526;28;119338;-85
2023/10/13 02:35:55;;;;;;;4.33;3.10;;;21.10;60.90;;;21.29;39.92;98627.56;5026931;27;119030;-85
2023/10/13 02:38:58;;;;;;;8.53;3.90;;;21.00;60.90;;;21.27;40.24;98627.16;5025274;27;124115;-85
2023/10/13 02:41:28;;;;;;;6.30;3.40;;;21.00;61.20;;;21.23;40.37;98628.34;5018787;27;123874;-85
2023/10/13 02:43:58;;;;;;;9.50;3.60;;;21.00;61.50;;;21.19;40.67;98629.09;5021729;27;119436;-85
2023/10/13 02:46:28;;;;;;;5.57;3.37;;;20.90;61.70;;;21.17;40.72;98631.50;5011675;28;119106;-85
2023/10/13 02:48:57;;;;;;;7.10;3.97;;;20.90;61.80;;;21.13;40.60;98630.66;4995992;27;123627;-85
2023/10/13 02:51:35;;;;;;;6.20;3.40;;;20.90;62.10;;;21.07;40.67;98625.78;5025903;28;123872;-85
2023/10/13 02:54:11;;;;;;;7.07;3.40;;;20.80;62.10;;;21.04;41.10;98623.75;5009775;27;118465;-84
2023/10/13 02:56:49;;;;;;;4.80;2.93;;;20.80;62.30;;;21.01;40.92;98619.72;5009185;28;118995;-85
2023/10/13 02:59:19;;;;;;;8.23;3.40;;;20.80;62.40;;;20.98;40.88;98620.47;5025347;27;124275;-85
2023/10/13 03:01:46;;;;;;;6.83;3.70;;;20.80;62.50;;;20.96;40.84;98615.25;5027281;27;122862;-85
2023/10/13 03:04:13;;;;;;;4.90;2.60;;;20.80;62.70;;;20.96;41.03;98625.69;5024994;27;120181;-85
2023/10/13 03:06:42;;;;;;;5.63;3.00;;;20.70;62.70;;;20.92;41.19;98611.59;5013157;27;120077;-85
2023/10/13 03:09:19;;;;;;;4.80;3.17;;;20.70;62.80;;;20.92;40.73;98614.38;5025615;27;124056;-85
2023/10/13 03:11:49;;;;;;;5.37;3.13;;;20.70;62.60;;;20.90;41.01;98610.34;4993527;28;123024;-85
2023/10/13 03:14:25;;;;;;;6.10;3.27;;;20.70;62.40;;;20.90;40.85;98604.72;5026535;27;119443;-85
2023/10/13 03:17:08;;;;;;;7.17;3.27;;;20.60;62.30;;;20.89;40.31;98612.34;5026012;27;118318;-85
2023/10/13 03:19:38;;;;;;;4.60;2.97;;;20.60;62.00;;;20.88;40.56;98612.75;5009412;28;124701;-85
2023/10/13 03:22:11;;;;;;;5.57;2.80;;;20.60;61.70;;;20.87;39.88;98606.31;5008255;27;122878;-85
2023/10/13 03:24:44;;;;;;;12.30;3.33;;;20.60;61.50;;;20.86;39.71;98603.91;5025523;27;119747;-84
2023/10/13 03:27:24;;;;;;;5.50;3.17;;;20.60;61.20;;;20.87;39.68;98605.50;5008714;27;119003;-84
2023/10/13 03:30:00;;;;;;;4.80;2.50;;;20.60;61.10;;;20.85;39.99;98597.50;5033454;28;122304;-85
2023/10/13 03:32:29;;;;;;;4.97;3.10;;;20.50;60.90;;;20.85;39.88;98600.31;5034133;27;124509;-85
2023/10/13 03:43:06;;;;;;;7.53;3.37;;;20.50;60.60;;;20.78;39.95;98596.59;5027903;27;124759;-85
2023/10/13 03:45:43;;;;;;;4.47;3.10;;;20.50;60.70;;;20.74;39.63;98600.19;5039006;27;120037;-85
2023/10/13 03:51:06;;;;;;;7.20;3.83;;;20.40;60.60;;;20.72;39.95;98591.34;5029150;27;124483;-84
2023/10/13 03:53:50;;;;;;;9.87;3.17;;;20.40;60.60;;;20.71;40.06;98594.53;5026804;27;124100;-85
2023/10/13 03:59:09;;;;;;;5.30;3.60;;;20.40;60.70;;;20.69;39.67;98594.13;5025044;27;120572;-84
2023/10/13 04:17:51;;;;;;;6.30;3.47;;;20.30;60.70;;;20.59;39.79;98594.81;5027984;27;119487;-85
2023/10/13 04:20:30;;;;;;;5.50;3.80;;;20.20;60.60;;;20.57;40.12;98598.00;5038171;27;119053;-85
2023/10/13 04:28:33;;;;;;;7.60;3.70;;;20.30;60.70;;;20.51;40.16;98599.50;5027897;27;119559;-84
2023/10/13 04:31:24;;;;;;;4.80;3.20;;;20.20;60.70;;;20.49;40.17;98596.25;5027254;27;119482;-85
2023/10/13 04:34:01;;;;;;;6.63;3.40;;;20.20;60.70;;;20.47;39.88;98595.84;5022306;27;123983;-85
2023/10/13 04:41:41;;;;;;;7.13;3.33;;;20.20;60.70;;;20.47;39.83;98587.41;5010860;28;119185;-85
2023/10/13 04:49:49;;;;;;;6.27;3.60;;;20.20;60.70;;;20.49;40.01;98579.44;5008940;27;120532;-84
2023/10/13 04:52:38;;;;;;;6.67;3.13;;;20.20;60.70;;;20.48;39.96;98573.00;5028108;27;119902;-84
2023/10/13 04:58:00;;;;;;;6.10;3.40;;;20.20;60.80;;;20.47;40.20;98568.59;5026792;27;124368;-83
2023/10/13 05:00:55;;;;;;;6.10;3.80;;;20.20;60.90;;;20.49;39.80;98568.19;5024361;28;118646;-83
2023/10/13 05:48:01;;;;;;;5.00;2.80;;;20.20;60.90;;;20.46;40.00;98552.94;5043784;27;120307;-85
2023/10/13 06:28:51;;;;;;;5.80;3.03;;;20.30;60.60;;;20.71;39.81;98584.13;4998253;28;120232;-85
2023/10/13 06:31:23;;;;;;;11.00;4.10;;;20.30;60.60;;;20.73;39.37;98583.72;4970464;28;118948;-84
2023/10/13 06:33:49;;;;;;;6.33;3.30;;;20.40;60.50;;;20.74;39.56;98569.31;4986427;28;124250;-84
2023/10/13 06:36:17;;;;;;;9.37;3.60;;;20.40;60.50;;;20.76;39.58;98571.72;4990315;28;122708;-85
2023/10/13 06:38:44;;;;;;;7.60;3.73;;;20.40;60.50;;;20.78;39.39;98568.53;4978923;28;119990;-85
2023/10/13 06:41:19;;;;;;;9.60;3.70;;;20.40;60.50;;;20.80;39.61;98571.75;4985426;28;120380;-85
2023/10/13 06:43:58;;;;;;;5.80;3.20;;;20.40;60.50;;;20.82;39.41;98561.75;4987112;28;122413;-85
2023/10/13 06:46:28;;;;;;;5.27;3.50;;;20.50;60.50;;;20.86;39.22;98564.59;4996804;28;123923;-84
2023/10/13 06:49:02;;;;;;;7.10;3.20;;;20.40;60.50;;;20.89;40.08;98555.38;5017593;28;119346;-85
2023/10/13 06:51:37;;;;;;;15.60;4.27;;;20.50;60.90;;;20.90;39.89;98559.81;4986168;28;119064;-84
2023/10/13 06:54:11;;;;;;;9.83;4.00;;;20.50;61.10;;;20.94;40.12;98555.84;5014443;28;124540;-85
2023/10/13 06:56:40;;;;;;;8.17;4.10;;;20.50;61.20;;;21.00;40.02;98567.53;5016482;28;124120;-84
2023/10/13 06:59:10;;;;;;;15.10;5.33;;;20.60;61.40;;;21.06;39.94;98559.53;4985722;28;119365;-83
2023/10/13 07:01:39;;;;;;;12.37;4.60;;;20.60;61.60;;;21.13;40.04;98566.03;4986092;28;118566;-84
2023/10/13 07:04:18;;;;;;;11.17;4.20;;;20.70;61.80;;;21.19;39.82;98561.66;4992412;28;124589;-84
2023/10/13 07:06:50;;;;;;;10.07;4.33;;;20.70;61.70;;;21.26;39.76;98565.72;4976341;28;123286;-84
2023/10/13 07:12:02;;;;;;;10.57;4.20;;;20.10;60.90;;;21.39;39.51;98553.00;4977916;28;119829;-84
2023/10/13 07:14:33;;;;;;;7.70;3.80;;;20.90;61.60;;;21.47;39.16;98559.50;4986208;28;123093;-84
2023/10/13 07:17:05;;;;;;;8.27;4.40;;;20.90;61.40;;;21.53;39.22;98558.72;4982404;28;123908;-84
2023/10/13 07:19:33;;;;;;;9.03;4.13;;;21.00;61.30;;;21.59;38.91;98557.16;4977453;28;118373;-85
2023/10/13 07:22:20;;;;;;;8.20;4.20;;;21.10;61.20;;;21.65;38.95;98559.59;5011026;27;118909;-83
2023/10/13 07:24:50;;;;;;;6.90;3.53;;;21.10;60.80;;;21.69;38.49;98549.19;5005239;28;122208;-86
2023/10/13 07:27:24;;;;;;;9.37;3.93;;;21.10;60.30;;;21.72;38.69;98559.63;5001667;28;123888;-88
2023/10/13 07:30:05;;;;;;;10.63;4.00;;;21.20;60.20;;;21.74;38.10;98554.44;4988620;28;120697;-85
2023/10/13 07:32:33;;;;;;;7.97;4.07;;;21.20;59.90;;;21.77;38.48;98550.84;4997889;28;120200;-85
2023/10/13 07:35:05;;;;;;;10.20;3.80;;;21.30;59.90;;;21.80;38.11;98547.22;4976256;28;124070;-84
2023/10/13 07:37:32;;;;;;;9.53;3.77;;;21.30;59.60;;;21.85;37.99;98552.47;4970008;28;123984;-84
2023/10/13 07:40:21;;;;;;;7.73;3.50;;;21.30;59.40;;;21.94;37.75;98561.34;4987429;28;119869;-86
2023/10/13 07:43:00;;;;;;;7.30;4.40;;;21.40;59.10;;;22.00;37.19;98547.72;4986532;28;119457;-86
2023/10/13 07:45:36;;;;;;;9.70;4.10;;;21.50;58.90;;;22.05;37.15;98548.13;4988526;28;125249;-86
2023/10/13 07:48:20;;;;;;;7.27;3.47;;;21.60;58.70;;;22.13;37.26;98551.00;4984190;28;124296;-85
2023/10/13 07:51:15;;;;;;;11.13;3.80;;;21.60;58.40;;;22.17;36.96;98547.00;4977390;28;119076;-85
2023/10/13 07:53:49;;;;;;;9.97;3.97;;;21.70;58.20;;;22.24;36.77;98546.22;4992092;28;118268;-86
2023/10/13 07:56:19;;;;;;;8.67;3.43;;;21.70;57.70;;;22.29;36.48;98548.66;5013490;27;124124;-85
2023/10/13 07:59:00;;;;;;;5.23;2.90;;;21.80;57.60;;;22.36;36.32;98553.53;4971530;28;124464;-84
2023/10/13 08:01:27;;;;;;;9.13;3.20;;;21.80;57.40;;;22.43;36.25;98543.09;4987245;28;119831;-85
2023/10/13 08:04:11;;;;;;;9.03;2.77;;;21.90;57.50;;;22.52;35.94;98544.72;4992709;28;118733;-86
2023/10/13 08:06:40;;;;;;;5.43;2.87;;;22.00;57.30;;;22.59;35.89;98531.44;4974856;28;124178;-86
2023/10/13 08:09:29;;;;;;;7.83;3.30;;;22.10;57.10;;;22.66;35.43;98536.28;4981213;28;124221;-86
2023/10/13 08:12:00;;;;;;;6.80;3.07;;;22.10;56.60;;;22.71;35.13;98531.06;4971286;28;119270;-86
2023/10/13 08:14:33;;;;;;;7.53;3.50;;;22.10;55.90;;;22.78;35.01;98530.25;4979460;28;119033;-86
2023/10/13 08:17:00;;;;;;;7.37;2.80;;;22.20;56.00;;;22.84;34.79;98534.28;5005457;28;123264;-85
2023/10/13 08:19:32;;;;;;;9.80;3.23;;;22.30;55.80;;;22.90;34.22;98534.69;4986410;28;124104;-86
2023/10/13 08:27:49;;;;;;;6.80;3.13;;;22.40;54.40;;;23.05;34.33;98527.06;4989395;28;123972;-85
2023/10/13 08:30:28;;;;;;;13.90;3.47;;;22.50;55.10;;;23.10;33.60;98524.66;4999786;28;123655;-85
2023/10/13 08:32:56;;;;;;;5.70;3.13;;;22.60;53.90;;;23.15;33.39;98531.91;4978139;28;119970;-85
2023/10/13 08:35:33;;;;;;;13.10;3.30;;;22.60;53.30;;;23.20;33.19;98517.41;4980257;28;119195;-82
2023/10/13 08:38:13;;;;;;;12.10;3.80;;;22.70;53.20;;;23.25;33.28;98519.81;5005792;27;123582;-84
2023/10/13 08:41:25;;;;;;;8.90;3.40;;;22.70;53.20;;;23.31;32.98;98515.38;4973496;28;123838;-83
2023/10/13 08:43:44;;;;;;;11.67;3.50;;;22.80;53.00;;;23.36;32.77;98509.31;5008473;27;119198;-84
2023/10/13 08:46:25;;;;;;;15.37;4.20;;;22.80;52.40;;;23.43;32.57;98510.50;5013007;27;118226;-85
2023/10/13 08:49:14;;;;;;;8.30;3.43;;;22.90;52.50;;;23.49;32.57;98503.25;4984738;28;124579;-84
2023/10/13 08:51:45;;;;;;;4.90;3.30;;;23.00;52.50;;;23.54;32.58;98502.84;4983693;28;123874;-84
2023/10/13 08:54:19;;;;;;;5.00;2.83;;;23.00;52.20;;;23.60;32.30;98496.38;4985354;28;119433;-82
2023/10/13 08:56:56;;;;;;;6.90;3.17;;;23.10;52.10;;;23.68;32.56;98502.81;4987047;28;118266;-83
2023/10/13 08:59:52;;;;;;;8.07;3.17;;;23.20;52.40;;;23.75;32.02;98490.69;4989169;28;124547;-83
2023/10/13 09:02:59;;;;;;;5.80;3.30;;;23.20;51.90;;;23.80;31.72;98485.47;4989265;28;123816;-84
2023/10/13 09:08:08;;;;;;;9.63;3.40;;;23.30;51.00;;;23.95;31.28;98488.22;4990967;28;120081;-85
2023/10/13 09:10:44;;;;;;;4.70;3.10;;;23.40;50.80;;;24.02;31.53;98482.56;4991218;28;123321;-85
2023/10/13 09:13:20;;;;;;;10.33;3.03;;;23.50;50.90;;;24.10;31.15;98478.47;5011393;27;123903;-84
2023/10/13 09:16:01;;;;;;;6.50;2.83;;;23.60;50.40;;;24.18;31.22;98480.03;4989017;28;119702;-85
2023/10/13 09:18:42;;;;;;;6.07;2.43;;;23.70;50.60;;;24.30;30.86;98470.28;5022576;27;119804;-84
2023/10/13 09:24:21;;;;;;;7.00;3.50;;;24.10;49.70;;;24.46;30.47;98470.59;4976733;28;124332;-85
2023/10/13 09:26:57;;;;;;;12.10;3.30;;;23.90;49.30;;;24.56;30.05;98476.63;5001153;27;119262;-85
2023/10/13 09:29:28;;;;;;;6.17;2.37;;;24.00;49.40;;;24.63;30.11;98471.69;4977649;28;119663;-84
2023/10/13 09:32:02;;;;;;;7.53;3.43;;;24.10;48.80;;;24.71;29.68;98466.00;4987829;28;124006;-85
2023/10/13 09:34:33;;;;;;;8.50;2.70;;;24.20;48.80;;;24.77;29.86;98469.97;4989716;28;123164;-84
2023/10/13 09:37:03;;;;;;;9.60;2.57;;;24.30;48.30;;;24.86;28.97;98467.50;4999118;28;119335;-83
2023/10/13 09:39:34;;;;;;;8.73;2.73;;;24.30;47.40;;;24.92;28.83;98475.09;5020339;27;118661;-84
2023/10/13 09:42:03;;;;;;;10.20;3.60;;;24.40;47.40;;;24.99;28.89;98468.59;4987547;28;124004;-83
2023/10/13 09:44:31;;;;;;;7.80;3.30;;;24.50;47.50;;;25.07;28.67;98452.38;5015657;27;123830;-82
2023/10/13 09:47:29;;;;;;;8.77;2.83;;;24.50;47.00;;;25.13;28.90;98448.66;4980579;28;119133;-85
2023/10/13 09:50:03;;;;;;;4.10;2.80;;;24.70;46.90;;;25.23;28.66;98446.19;5005656;27;119003;-84
2023/10/13 09:52:33;;;;;;;8.40;3.50;;;24.70;46.80;;;25.32;28.72;98441.63;4996572;28;124205;-84
2023/10/13 09:55:33;;;;;;;7.50;2.30;;;24.80;46.80;;;25.39;28.66;98445.56;5025311;27;123231;-85
2023/10/13 09:58:11;;;;;;;8.43;2.73;;;24.90;46.50;;;25.50;27.93;98444.25;4991378;28;119450;-85
2023/10/13 10:01:06;;;;;;;8.50;3.50;;;25.00;46.00;;;25.59;27.74;98440.91;4989747;28;117929;-87
2023/10/13 10:04:16;;;;;;;7.30;3.00;;;25.10;45.90;;;25.69;28.20;98436.34;4998054;28;123192;-83
2023/10/13 10:06:39;;;;;;;9.83;3.40;;;25.20;46.10;;;25.77;27.62;98423.72;5016141;27;122929;-83
2023/10/13 10:09:12;;;;;;;4.97;2.60;;;25.30;45.50;;;25.86;27.68;98438.16;5029376;27;120385;-83
2023/10/13 10:12:01;;;;;;;7.93;3.17;;;25.40;45.30;;;25.96;27.13;98436.44;5039859;27;121724;-83
2023/10/13 10:15:35;;;;;;;6.67;3.23;;;25.50;45.10;;;26.04;27.32;98439.97;5015565;27;124005;-83
2023/10/13 10:18:25;;;;;;;6.07;3.00;;;25.60;44.50;;;26.13;27.28;98432.53;4987549;27;124300;-83
2023/10/13 10:21:07;;;;;;;4.33;2.47;;;25.60;44.60;;;26.26;26.66;98424.25;5033298;27;119087;-83
2023/10/13 10:23:39;;;;;;;6.43;2.50;;;25.70;44.40;;;26.36;26.62;98423.31;5038656;27;118736;-83
2023/10/13 10:26:11;;;;;;;7.40;2.70;;;25.80;44.50;;;26.44;26.84;98430.47;5044914;27;123090;-85
2023/10/13 10:28:41;;;;;;;9.13;3.10;;;25.90;44.10;;;26.51;26.67;98418.22;5042953;27;123463;-85
2023/10/13 10:31:12;;;;;;;8.07;3.20;;;26.00;43.80;;;26.56;25.78;98429.09;5026713;27;119323;-83
2023/10/13 10:33:51;;;;;;;4.63;2.20;;;26.00;42.90;;;26.62;25.72;98412.38;5023177;27;118967;-83
2023/10/13 10:36:32;;;;;;;5.60;2.93;;;26.10;43.00;;;26.70;25.92;98421.56;5026789;28;124486;-84
2023/10/13 10:38:59;;;;;;;11.40;3.47;;;26.20;43.10;;;26.81;25.33;98417.34;5002122;28;124003;-83
2023/10/13 10:41:38;;;;;;;5.67;2.90;;;26.30;42.40;;;26.91;25.85;98414.75;5023151;27;119792;-83
2023/10/13 10:44:16;;;;;;;4.30;2.73;;;26.40;42.50;;;26.99;25.73;98405.66;5031223;27;119267;-85
2023/10/13 10:46:56;;;;;;;8.57;2.77;;;26.50;42.60;;;27.05;25.89;98389.75;5022916;27;124103;-84
2023/10/13 10:49:29;;;;;;;5.57;2.77;;;26.60;42.50;;;27.11;25.82;98392.91;5025085;27;123911;-83
2023/10/13 10:52:05;;;;;;;6.90;3.00;;;26.60;42.50;;;27.19;25.45;98388.72;5007483;28;118520;-83
2023/10/13 10:54:32;;;;;;;5.40;3.50;;;26.70;42.10;;;27.26;25.71;98385.72;5020459;27;118897;-84
2023/10/13 10:57:17;;;;;;;5.20;3.33;;;26.80;42.20;;;27.37;25.08;98379.06;5037166;27;123822;-84
2023/10/13 10:59:48;;;;;;;4.77;2.80;;;26.80;41.90;;;27.48;24.58;98373.94;5021745;27;123853;-84
2023/10/13 11:02:24;;;;;;;9.00;3.57;;;26.90;41.30;;;27.57;24.88;98374.19;5024251;27;120566;-85
2023/10/13 11:04:51;;;;;;;5.37;2.33;;;27.00;41.20;;;27.64;24.91;98370.38;5035707;27;119649;-84
2023/10/13 11:07:23;;;;;;;9.47;3.07;;;27.10;41.40;;;27.68;24.78;98369.06;5044280;27;124424;-84
2023/10/13 11:09:52;;;;;;;14.50;3.90;;;27.20;41.20;;;27.74;24.79;98361.63;5004406;28;124105;-88
2023/10/13 11:15:21;;;;;;;6.87;3.43;;;27.30;40.80;;;27.89;24.51;98347.16;5026462;27;119189;-86
2023/10/13 11:18:05;;;;;;;14.23;3.00;;;27.40;40.70;;;28.01;24.41;98331.47;5001940;27;123838;-87
2023/10/13 11:20:43;;;;;;;6.57;2.90;;;27.50;40.50;;;28.14;24.34;98335.19;5027441;27;123916;-86
2023/10/13 11:23:16;;;;;;;5.63;3.00;;;27.60;40.30;;;28.26;23.99;98342.22;5009938;28;122632;-85
2023/10/13 11:25:45;;;;;;;10.40;2.83;;;27.70;40.30;;;28.38;23.96;98327.31;5019551;28;118038;-85
2023/10/13 11:28:27;;;;;;;9.60;2.60;;;27.80;40.10;;;28.50;23.88;98323.75;5016695;27;124065;-85
2023/10/13 11:31:19;;;;;;;7.20;3.20;;;27.90;40.00;;;28.61;23.87;98327.16;5010955;27;123827;-88
2023/10/13 11:33:46;;;;;;;12.20;3.13;;;28.00;39.70;;;28.71;23.46;98327.28;5022189;27;119116;-86
2023/10/13 11:36:31;;;;;;;7.90;4.03;;;28.10;39.10;;;28.78;23.13;98329.97;5025044;27;119094;-88
2023/10/13 11:39:00;;;;;;;6.20;2.83;;;28.20;39.20;;;28.85;23.39;98329.75;5032812;27;123709;-85
2023/10/13 11:41:45;;;;;;;8.20;2.80;;;28.30;38.80;;;28.92;23.15;98323.88;5022224;27;123849;-87
2023/10/13 11:49:17;;;;;;;6.90;3.23;;;28.50;37.80;;;29.11;22.80;98312.81;5031019;27;124310;-87
2023/10/13 11:51:49;;;;;;;7.87;2.83;;;28.60;37.80;;;29.19;22.59;98317.06;5000202;28;123902;-87
2023/10/13 11:54:17;;;;;;;5.33;2.90;;;28.60;37.70;;;29.26;22.76;98316.88;5018319;27;120517;-86
2023/10/13 11:56:45;;;;;;;6.30;2.90;;;28.70;37.90;;;29.39;22.65;98312.00;5025225;27;119833;-86
2023/10/13 11:59:18;;;;;;;4.20;2.33;;;28.80;38.00;;;29.50;22.83;98298.25;5025026;27;124098;-87
2023/10/13 12:04:51;;;;;;;10.13;3.10;;;29.00;37.30;;;29.73;22.18;98293.50;5024653;27;119795;-88
2023/10/13 12:07:40;;;;;;;5.50;2.80;;;29.20;37.40;;;29.82;21.80;98289.97;5022250;27;118675;-86
2023/10/13 12:10:15;;;;;;;6.23;2.80;;;29.20;36.70;;;29.87;21.84;98284.50;5040653;27;123845;-87
2023/10/13 12:12:43;;;;;;;7.93;3.00;;;29.30;36.50;;;29.95;21.92;98288.72;5023771;28;124114;-86
2023/10/13 12:15:25;;;;;;;6.43;3.13;;;29.40;36.40;;;30.02;21.10;98284.06;5024926;27;119567;-86
2023/10/13 12:17:51;;;;;;;4.13;2.53;;;29.50;35.60;;;30.11;21.10;98278.44;5016790;27;118339;-85
2023/10/13 12:20:35;;;;;;;8.20;2.93;;;29.50;35.90;;;30.19;21.16;98279.81;5025060;27;123175;-85
2023/10/13 12:23:15;;;;;;;7.53;3.77;;;29.60;35.30;;;30.24;20.58;98276.41;5036424;27;123007;-87
2023/10/13 12:25:54;;;;;;;4.80;3.00;;;29.70;34.80;;;30.30;20.62;98268.06;5014901;27;118793;-86
2023/10/13 12:28:23;;;;;;;12.93;2.97;;;29.80;35.00;;;30.37;20.70;98267.84;5022977;27;119029;-86
2023/10/13 12:30:52;;;;;;;8.20;3.17;;;29.90;34.90;;;30.46;21.14;98262.22;5013845;27;124728;-86
2023/10/13 12:33:24;;;;;;;19.23;3.97;;;29.90;34.80;;;30.58;20.27;98266.28;5027650;27;123333;-85
2023/10/13 12:36:06;;;;;;;5.97;3.30;;;30.00;34.50;;;30.66;20.46;98259.06;5028298;27;118899;-85
2023/10/13 12:52:16;;;;;;;3.73;2.57;;;30.70;35.10;;;31.36;20.33;98225.50;5039121;27;124489;-84
2023/10/13 12:54:47;;;;;;;6.00;2.67;;;30.80;34.40;;;31.49;19.68;98228.31;5021150;27;123994;-86
2023/10/13 12:57:16;;;;;;;5.33;2.53;;;30.90;33.80;;;31.58;19.69;98222.63;5026221;27;119090;-85
2023/10/13 12:59:43;;;;;;;7.00;3.13;;;31.00;33.40;;;31.67;19.78;98219.00;5003957;27;118915;-85
2023/10/13 13:02:15;;;;;;;6.17;2.80;;;31.10;33.10;;;31.76;19.52;98212.53;5028995;28;124334;-87
2023/10/13 13:04:44;;;;;;;5.10;2.67;;;31.20;33.10;;;31.85;19.58;98213.34;5033709;27;123497;-83
2023/10/13 13:07:14;;;;;;;7.00;3.00;;;31.20;32.80;;;31.91;19.26;98196.38;5039696;27;120113;-84
2023/10/13 13:09:43;;;;;;;6.97;2.80;;;31.40;32.70;;;32.03;19.50;98184.06;5026662;27;119069;-85
2023/10/13 13:12:12;;;;;;;4.70;2.87;;;31.50;32.90;;;32.20;19.19;98180.91;5029665;27;123432;-85
2023/10/13 13:14:45;;;;;;;11.40;4.43;;;31.60;32.90;;;32.36;19.16;98174.88;5031023;27;123776;-86
2023/10/13 13:17:15;;;;;;;6.03;3.03;;;31.70;32.70;;;32.51;19.36;98181.59;5010642;28;118305;-86
2023/10/13 13:19:42;;;;;;;6.30;2.73;;;31.90;32.40;;;32.67;19.02;98179.66;5021611;27;118482;-85
2023/10/13 13:22:11;;;;;;;4.77;2.50;;;32.00;32.50;;;32.86;18.64;98174.72;5046985;27;124072;-86
2023/10/13 13:24:45;;;;;;;8.37;2.90;;;32.20;31.70;;;32.93;17.89;98186.63;5035714;27;124553;-85
2023/10/13 13:27:15;;;;;;;9.87;2.50;;;32.30;30.50;;;32.95;17.61;98169.78;5036727;27;119364;-85
2023/10/13 13:29:46;;;;;;;7.87;3.07;;;32.40;30.40;;;33.03;17.77;98172.34;5048752;27;118781;-84
2023/10/13 13:32:23;;;;;;;5.00;2.83;;;32.40;29.90;;;33.07;17.73;98162.28;5044602;27;124460;-84
2023/10/13 13:35:06;;;;;;;7.37;2.77;;;32.60;29.70;;;33.11;17.26;98157.19;5003791;27;123834;-87
2023/10/13 13:37:32;;;;;;;6.33;2.60;;;32.60;29.50;;;33.15;17.35;98149.22;5046571;27;121052;-85
2023/10/13 13:40:15;;;;;;;5.73;2.80;;;32.60;29.60;;;33.24;17.14;98147.63;5028661;27;121355;-85